sensor_id;sensor_type;location;lat;lon;timestamp;P1;durP1;ratioP1;P2;durP2;ratioP2
7901;SDS011;3996;49.674;10.716;2023-02-18T00:01:57;6.33;;;5.73;;
7901;SDS011;3996;49.674;10.716;2023-02-18T00:04:23;5.93;;;5.40;;
7901;SDS011;3996;49.674;10.716;2023-02-18T00:06:48;6.43;;;5.83;;
7901;SDS011;3996;49.674;10.716;2023-02-18T00:09:14;6.47;;;5.80;;
7901;SDS011;3996;49.674;10.716;2023-02-18T00:11:39;6.10;;;5.60;;
7901;SDS011;3996;49.674;10.716;2023-02-18T00:14:06;7.13;;;6.43;;
7901;SDS011;3996;49.674;10.716;2023-02-18T00:16:35;6.60;;;6.00;;
7901;SDS011;3996;49.674;10.716;2023-02-18T00:19:02;6.57;;;5.97;;
7901;SDS011;3996;49.674;10.716;2023-02-18T00:21:29;6.77;;;6.17;;
7901;SDS011;3996;49.674;10.716;2023-02-18T00:23:56;7.07;;;6.40;;
7901;SDS011;3996;49.674;10.716;2023-02-18T00:26:22;7.30;;;6.60;;
7901;SDS011;3996;49.674;10.716;2023-02-18T00:28:47;7.30;;;6.63;;
7901;SDS011;3996;49.674;10.716;2023-02-18T00:31:16;7.50;;;6.80;;
7901;SDS011;3996;49.674;10.716;2023-02-18T00:33:44;7.53;;;6.83;;
7901;SDS011;3996;49.674;10.716;2023-02-18T00:36:10;8.10;;;7.37;;
7901;SDS011;3996;49.674;10.716;2023-02-18T00:38:44;7.30;;;6.60;;
7901;SDS011;3996;49.674;10.716;2023-02-18T00:41:10;7.23;;;6.53;;
7901;SDS011;3996;49.674;10.716;2023-02-18T00:43:36;7.97;;;7.23;;
7901;SDS011;3996;49.674;10.716;2023-02-18T00:46:02;7.60;;;6.90;;
7901;SDS011;3996;49.674;10.716;2023-02-18T00:48:27;7.47;;;6.77;;
7901;SDS011;3996;49.674;10.716;2023-02-18T00:50:53;8.23;;;7.50;;
7901;SDS011;3996;49.674;10.716;2023-02-18T00:53:19;8.50;;;7.13;;
7901;SDS011;3996;49.674;10.716;2023-02-18T00:55:46;9.53;;;7.60;;
7901;SDS011;3996;49.674;10.716;2023-02-18T00:58:12;7.93;;;7.23;;
7901;SDS011;3996;49.674;10.716;2023-02-18T01:00:39;7.83;;;7.07;;
7901;SDS011;3996;49.674;10.716;2023-02-18T01:03:05;8.13;;;7.33;;
7901;SDS011;3996;49.674;10.716;2023-02-18T01:05:32;8.23;;;7.53;;
7901;SDS011;3996;49.674;10.716;2023-02-18T01:07:57;8.17;;;7.47;;
7901;SDS011;3996;49.674;10.716;2023-02-18T01:10:23;8.57;;;7.77;;
7901;SDS011;3996;49.674;10.716;2023-02-18T01:12:49;8.13;;;7.37;;
7901;SDS011;3996;49.674;10.716;2023-02-18T01:15:14;7.80;;;7.10;;
7901;SDS011;3996;49.674;10.716;2023-02-18T01:17:41;8.07;;;7.37;;
7901;SDS011;3996;49.674;10.716;2023-02-18T01:20:07;7.53;;;6.93;;
7901;SDS011;3996;49.674;10.716;2023-02-18T01:22:36;8.93;;;7.03;;
7901;SDS011;3996;49.674;10.716;2023-02-18T01:25:02;7.07;;;6.47;;
7901;SDS011;3996;49.674;10.716;2023-02-18T01:27:28;6.30;;;5.70;;
7901;SDS011;3996;49.674;10.716;2023-02-18T01:29:54;6.53;;;5.93;;
7901;SDS011;3996;49.674;10.716;2023-02-18T01:32:19;6.17;;;5.57;;
7901;SDS011;3996;49.674;10.716;2023-02-18T01:34:45;5.90;;;5.40;;
7901;SDS011;3996;49.674;10.716;2023-02-18T01:37:11;6.13;;;5.60;;
7901;SDS011;3996;49.674;10.716;2023-02-18T01:39:37;5.80;;;5.30;;
7901;SDS011;3996;49.674;10.716;2023-02-18T01:42:03;5.97;;;5.47;;
7901;SDS011;3996;49.674;10.716;2023-02-18T01:44:29;5.33;;;4.87;;
7901;SDS011;3996;49.674;10.716;2023-02-18T01:46:57;5.57;;;5.10;;
7901;SDS011;3996;49.674;10.716;2023-02-18T01:49:30;5.40;;;4.97;;
7901;SDS011;3996;49.674;10.716;2023-02-18T01:52:04;5.10;;;4.67;;
7901;SDS011;3996;49.674;10.716;2023-02-18T01:54:35;5.90;;;5.40;;
7901;SDS011;3996;49.674;10.716;2023-02-18T01:57:17;5.33;;;4.93;;
7901;SDS011;3996;49.674;10.716;2023-02-18T01:59:47;5.97;;;5.40;;
7901;SDS011;3996;49.674;10.716;2023-02-18T02:02:17;5.87;;;5.27;;
7901;SDS011;3996;49.674;10.716;2023-02-18T02:04:45;5.20;;;4.73;;
7901;SDS011;3996;49.674;10.716;2023-02-18T02:07:11;5.47;;;4.97;;
7901;SDS011;3996;49.674;10.716;2023-02-18T02:09:37;5.33;;;4.83;;
7901;SDS011;3996;49.674;10.716;2023-02-18T02:32:02;4.40;;;4.00;;
7901;SDS011;3996;49.674;10.716;2023-02-18T02:51:03;4.10;;;3.73;;
7901;SDS011;3996;49.674;10.716;2023-02-18T02:53:35;4.40;;;3.90;;
7901;SDS011;3996;49.674;10.716;2023-02-18T02:56:03;5.00;;;4.17;;
7901;SDS011;3996;49.674;10.716;2023-02-18T02:58:29;4.30;;;3.90;;
7901;SDS011;3996;49.674;10.716;2023-02-18T03:10:24;5.00;;;4.37;;
7901;SDS011;3996;49.674;10.716;2023-02-18T03:15:22;4.30;;;3.90;;
7901;SDS011;3996;49.674;10.716;2023-02-18T03:17:54;4.30;;;3.90;;
7901;SDS011;3996;49.674;10.716;2023-02-18T03:20:27;5.40;;;4.50;;
7901;SDS011;3996;49.674;10.716;2023-02-18T03:23:03;4.40;;;4.00;;
7901;SDS011;3996;49.674;10.716;2023-02-18T03:25:32;4.77;;;4.27;;
7901;SDS011;3996;49.674;10.716;2023-02-18T03:28:02;4.73;;;4.33;;
7901;SDS011;3996;49.674;10.716;2023-02-18T03:31:07;4.70;;;4.30;;
7901;SDS011;3996;49.674;10.716;2023-02-18T03:33:34;4.80;;;4.40;;
7901;SDS011;3996;49.674;10.716;2023-02-18T03:36:03;4.83;;;4.33;;
7901;SDS011;3996;49.674;10.716;2023-02-18T03:40:57;5.87;;;4.63;;
7901;SDS011;3996;49.674;10.716;2023-02-18T03:43:23;5.17;;;4.67;;
7901;SDS011;3996;49.674;10.716;2023-02-18T03:45:49;5.17;;;4.67;;
7901;SDS011;3996;49.674;10.716;2023-02-18T03:48:14;4.90;;;4.20;;
7901;SDS011;3996;49.674;10.716;2023-02-18T03:50:41;5.40;;;4.90;;
7901;SDS011;3996;49.674;10.716;2023-02-18T03:53:06;4.30;;;3.90;;
7901;SDS011;3996;49.674;10.716;2023-02-18T03:55:32;5.53;;;4.37;;
7901;SDS011;3996;49.674;10.716;2023-02-18T03:57:58;4.70;;;4.30;;
7901;SDS011;3996;49.674;10.716;2023-02-18T04:00:23;4.47;;;4.07;;
7901;SDS011;3996;49.674;10.716;2023-02-18T04:02:49;5.90;;;4.83;;
7901;SDS011;3996;49.674;10.716;2023-02-18T04:05:14;6.10;;;4.80;;
7901;SDS011;3996;49.674;10.716;2023-02-18T04:07:40;5.17;;;4.67;;
7901;SDS011;3996;49.674;10.716;2023-02-18T04:10:06;4.97;;;4.53;;
7901;SDS011;3996;49.674;10.716;2023-02-18T04:12:32;5.53;;;5.03;;
7901;SDS011;3996;49.674;10.716;2023-02-18T04:14:58;4.50;;;4.10;;
7901;SDS011;3996;49.674;10.716;2023-02-18T04:17:23;4.70;;;4.20;;
7901;SDS011;3996;49.674;10.716;2023-02-18T04:19:49;5.27;;;4.47;;
7901;SDS011;3996;49.674;10.716;2023-02-18T04:22:15;4.70;;;4.30;;
7901;SDS011;3996;49.674;10.716;2023-02-18T04:24:40;4.50;;;4.10;;
7901;SDS011;3996;49.674;10.716;2023-02-18T04:27:06;4.57;;;4.17;;
7901;SDS011;3996;49.674;10.716;2023-02-18T04:29:31;4.43;;;4.03;;
7901;SDS011;3996;49.674;10.716;2023-02-18T04:31:57;4.10;;;3.70;;
7901;SDS011;3996;49.674;10.716;2023-02-18T04:34:23;4.33;;;3.90;;
7901;SDS011;3996;49.674;10.716;2023-02-18T04:36:48;4.07;;;3.77;;
7901;SDS011;3996;49.674;10.716;2023-02-18T04:39:14;3.97;;;3.57;;
7901;SDS011;3996;49.674;10.716;2023-02-18T04:41:39;3.63;;;3.33;;
7901;SDS011;3996;49.674;10.716;2023-02-18T04:44:05;4.50;;;4.10;;
7901;SDS011;3996;49.674;10.716;2023-02-18T04:46:31;3.97;;;3.67;;
7901;SDS011;3996;49.674;10.716;2023-02-18T04:48:57;4.73;;;4.30;;
7901;SDS011;3996;49.674;10.716;2023-02-18T04:51:22;5.63;;;5.03;;
7901;SDS011;3996;49.674;10.716;2023-02-18T04:53:48;4.60;;;4.20;;
7901;SDS011;3996;49.674;10.716;2023-02-18T04:56:13;5.00;;;4.60;;
7901;SDS011;3996;49.674;10.716;2023-02-18T04:58:39;5.43;;;4.43;;
7901;SDS011;3996;49.674;10.716;2023-02-18T05:01:05;4.20;;;3.80;;
7901;SDS011;3996;49.674;10.716;2023-02-18T05:03:30;5.13;;;4.30;;
7901;SDS011;3996;49.674;10.716;2023-02-18T05:05:56;4.87;;;3.93;;
7901;SDS011;3996;49.674;10.716;2023-02-18T05:08:22;4.10;;;3.70;;
7901;SDS011;3996;49.674;10.716;2023-02-18T05:10:47;4.00;;;3.70;;
7901;SDS011;3996;49.674;10.716;2023-02-18T05:13:13;4.17;;;3.77;;
7901;SDS011;3996;49.674;10.716;2023-02-18T05:15:39;3.77;;;3.47;;
7901;SDS011;3996;49.674;10.716;2023-02-18T05:18:05;4.13;;;3.73;;
7901;SDS011;3996;49.674;10.716;2023-02-18T05:20:31;4.20;;;3.80;;
7901;SDS011;3996;49.674;10.716;2023-02-18T05:22:57;4.60;;;3.80;;
7901;SDS011;3996;49.674;10.716;2023-02-18T05:25:23;3.97;;;3.63;;
7901;SDS011;3996;49.674;10.716;2023-02-18T05:27:49;4.17;;;3.77;;
7901;SDS011;3996;49.674;10.716;2023-02-18T05:30:14;4.03;;;3.63;;
7901;SDS011;3996;49.674;10.716;2023-02-18T05:32:40;3.90;;;3.50;;
7901;SDS011;3996;49.674;10.716;2023-02-18T05:35:06;3.80;;;3.50;;
7901;SDS011;3996;49.674;10.716;2023-02-18T05:37:31;3.70;;;3.40;;
7901;SDS011;3996;49.674;10.716;2023-02-18T05:39:57;3.77;;;3.43;;
7901;SDS011;3996;49.674;10.716;2023-02-18T05:42:23;4.40;;;3.60;;
7901;SDS011;3996;49.674;10.716;2023-02-18T05:44:48;4.23;;;3.83;;
7901;SDS011;3996;49.674;10.716;2023-02-18T05:47:14;3.80;;;3.40;;
7901;SDS011;3996;49.674;10.716;2023-02-18T05:49:40;3.80;;;3.50;;
7901;SDS011;3996;49.674;10.716;2023-02-18T05:52:07;4.90;;;4.03;;
7901;SDS011;3996;49.674;10.716;2023-02-18T05:54:33;4.27;;;3.87;;
7901;SDS011;3996;49.674;10.716;2023-02-18T05:57:00;3.83;;;3.47;;
7901;SDS011;3996;49.674;10.716;2023-02-18T05:59:28;4.20;;;3.80;;
7901;SDS011;3996;49.674;10.716;2023-02-18T06:01:55;6.40;;;4.30;;
7901;SDS011;3996;49.674;10.716;2023-02-18T06:04:20;4.50;;;4.10;;
7901;SDS011;3996;49.674;10.716;2023-02-18T06:06:46;4.33;;;3.93;;
7901;SDS011;3996;49.674;10.716;2023-02-18T06:09:12;4.63;;;4.23;;
7901;SDS011;3996;49.674;10.716;2023-02-18T06:11:38;4.40;;;4.00;;
7901;SDS011;3996;49.674;10.716;2023-02-18T06:14:03;5.37;;;4.87;;
7901;SDS011;3996;49.674;10.716;2023-02-18T06:16:29;4.97;;;4.43;;
7901;SDS011;3996;49.674;10.716;2023-02-18T06:18:55;4.90;;;4.40;;
7901;SDS011;3996;49.674;10.716;2023-02-18T06:21:26;6.20;;;5.00;;
7901;SDS011;3996;49.674;10.716;2023-02-18T06:23:52;5.37;;;4.87;;
7901;SDS011;3996;49.674;10.716;2023-02-18T06:26:17;6.07;;;5.47;;
7901;SDS011;3996;49.674;10.716;2023-02-18T06:28:43;6.03;;;5.33;;
7901;SDS011;3996;49.674;10.716;2023-02-18T06:31:09;6.67;;;6.03;;
7901;SDS011;3996;49.674;10.716;2023-02-18T06:33:34;6.40;;;5.80;;
7901;SDS011;3996;49.674;10.716;2023-02-18T06:36:03;7.27;;;6.57;;
7901;SDS011;3996;49.674;10.716;2023-02-18T06:38:35;6.73;;;6.03;;
7901;SDS011;3996;49.674;10.716;2023-02-18T06:41:02;6.67;;;5.97;;
7901;SDS011;3996;49.674;10.716;2023-02-18T06:43:28;7.17;;;6.47;;
7901;SDS011;3996;49.674;10.716;2023-02-18T06:45:54;7.00;;;6.30;;
7901;SDS011;3996;49.674;10.716;2023-02-18T06:48:21;7.33;;;6.63;;
7901;SDS011;3996;49.674;10.716;2023-02-18T06:50:47;8.30;;;6.60;;
7901;SDS011;3996;49.674;10.716;2023-02-18T06:53:12;9.17;;;7.07;;
7901;SDS011;3996;49.674;10.716;2023-02-18T06:55:38;7.50;;;6.70;;
7901;SDS011;3996;49.674;10.716;2023-02-18T06:58:04;8.77;;;6.97;;
7901;SDS011;3996;49.674;10.716;2023-02-18T07:00:30;8.13;;;7.07;;
7901;SDS011;3996;49.674;10.716;2023-02-18T07:03:25;8.67;;;7.30;;
7901;SDS011;3996;49.674;10.716;2023-02-18T07:05:51;7.67;;;6.87;;
7901;SDS011;3996;49.674;10.716;2023-02-18T07:08:17;9.00;;;7.80;;
7901;SDS011;3996;49.674;10.716;2023-02-18T07:10:42;11.03;;;8.47;;
7901;SDS011;3996;49.674;10.716;2023-02-18T07:13:08;10.53;;;8.23;;
7901;SDS011;3996;49.674;10.716;2023-02-18T07:15:34;10.30;;;9.20;;
7901;SDS011;3996;49.674;10.716;2023-02-18T07:18:00;10.83;;;9.73;;
7901;SDS011;3996;49.674;10.716;2023-02-18T07:20:28;10.00;;;8.77;;
7901;SDS011;3996;49.674;10.716;2023-02-18T07:23:05;12.03;;;10.43;;
7901;SDS011;3996;49.674;10.716;2023-02-18T07:25:31;18.23;;;14.20;;
7901;SDS011;3996;49.674;10.716;2023-02-18T07:28:05;12.03;;;10.60;;
7901;SDS011;3996;49.674;10.716;2023-02-18T07:30:57;10.50;;;9.13;;
7901;SDS011;3996;49.674;10.716;2023-02-18T07:33:53;12.97;;;10.70;;
7901;SDS011;3996;49.674;10.716;2023-02-18T07:36:23;10.53;;;8.97;;
7901;SDS011;3996;49.674;10.716;2023-02-18T07:39:48;11.80;;;10.27;;
7901;SDS011;3996;49.674;10.716;2023-02-18T07:42:24;14.10;;;10.20;;
7901;SDS011;3996;49.674;10.716;2023-02-18T07:46:05;12.97;;;9.93;;
7901;SDS011;3996;49.674;10.716;2023-02-18T07:48:46;12.37;;;9.60;;
7901;SDS011;3996;49.674;10.716;2023-02-18T07:51:13;12.73;;;9.83;;
7901;SDS011;3996;49.674;10.716;2023-02-18T07:53:39;13.77;;;11.40;;
7901;SDS011;3996;49.674;10.716;2023-02-18T07:56:05;15.47;;;11.60;;
7901;SDS011;3996;49.674;10.716;2023-02-18T07:58:33;12.50;;;10.47;;
7901;SDS011;3996;49.674;10.716;2023-02-18T08:01:05;11.83;;;10.53;;
7901;SDS011;3996;49.674;10.716;2023-02-18T08:03:35;14.17;;;10.97;;
7901;SDS011;3996;49.674;10.716;2023-02-18T08:06:25;12.17;;;10.10;;
7901;SDS011;3996;49.674;10.716;2023-02-18T08:08:57;11.43;;;9.87;;
7901;SDS011;3996;49.674;10.716;2023-02-18T08:11:41;12.53;;;10.53;;
7901;SDS011;3996;49.674;10.716;2023-02-18T08:14:31;12.67;;;9.93;;
7901;SDS011;3996;49.674;10.716;2023-02-18T08:17:00;10.47;;;9.40;;
7901;SDS011;3996;49.674;10.716;2023-02-18T08:19:36;9.73;;;8.37;;
7901;SDS011;3996;49.674;10.716;2023-02-18T08:22:04;8.33;;;7.47;;
7901;SDS011;3996;49.674;10.716;2023-02-18T08:24:37;7.93;;;7.20;;
7901;SDS011;3996;49.674;10.716;2023-02-18T08:27:25;7.00;;;6.30;;
7901;SDS011;3996;49.674;10.716;2023-02-18T08:29:54;8.27;;;7.40;;
7901;SDS011;3996;49.674;10.716;2023-02-18T08:32:31;11.73;;;6.87;;
7901;SDS011;3996;49.674;10.716;2023-02-18T08:35:05;7.63;;;6.83;;
7901;SDS011;3996;49.674;10.716;2023-02-18T08:37:34;7.80;;;6.80;;
7901;SDS011;3996;49.674;10.716;2023-02-18T08:40:00;7.20;;;6.50;;
7901;SDS011;3996;49.674;10.716;2023-02-18T08:42:29;7.27;;;6.23;;
7901;SDS011;3996;49.674;10.716;2023-02-18T08:44:55;7.10;;;5.97;;
7901;SDS011;3996;49.674;10.716;2023-02-18T08:47:21;7.00;;;6.37;;
7901;SDS011;3996;49.674;10.716;2023-02-18T08:49:46;9.20;;;6.37;;
7901;SDS011;3996;49.674;10.716;2023-02-18T08:52:12;6.80;;;6.20;;
7901;SDS011;3996;49.674;10.716;2023-02-18T08:54:38;5.77;;;5.27;;
7901;SDS011;3996;49.674;10.716;2023-02-18T08:57:03;6.73;;;5.63;;
7901;SDS011;3996;49.674;10.716;2023-02-18T08:59:29;6.10;;;5.53;;
7901;SDS011;3996;49.674;10.716;2023-02-18T09:01:55;7.03;;;6.30;;
7901;SDS011;3996;49.674;10.716;2023-02-18T09:04:20;6.57;;;5.87;;
7901;SDS011;3996;49.674;10.716;2023-02-18T09:06:47;6.47;;;5.67;;
7901;SDS011;3996;49.674;10.716;2023-02-18T09:09:16;6.13;;;5.63;;
7901;SDS011;3996;49.674;10.716;2023-02-18T09:11:42;6.30;;;5.70;;
7901;SDS011;3996;49.674;10.716;2023-02-18T09:14:08;7.67;;;5.80;;
7901;SDS011;3996;49.674;10.716;2023-02-18T09:16:34;6.60;;;5.77;;
7901;SDS011;3996;49.674;10.716;2023-02-18T09:18:59;10.03;;;8.50;;
7901;SDS011;3996;49.674;10.716;2023-02-18T09:21:25;8.17;;;7.37;;
7901;SDS011;3996;49.674;10.716;2023-02-18T09:23:51;8.67;;;7.77;;
7901;SDS011;3996;49.674;10.716;2023-02-18T09:26:18;8.10;;;6.67;;
7901;SDS011;3996;49.674;10.716;2023-02-18T09:28:47;7.17;;;6.47;;
7901;SDS011;3996;49.674;10.716;2023-02-18T09:31:15;7.00;;;6.30;;
7901;SDS011;3996;49.674;10.716;2023-02-18T09:34:04;6.33;;;5.70;;
7901;SDS011;3996;49.674;10.716;2023-02-18T09:36:29;6.60;;;5.83;;
7901;SDS011;3996;49.674;10.716;2023-02-18T09:38:55;6.10;;;5.50;;
7901;SDS011;3996;49.674;10.716;2023-02-18T09:41:29;6.03;;;5.40;;
7901;SDS011;3996;49.674;10.716;2023-02-18T09:44:04;5.47;;;4.97;;
7901;SDS011;3996;49.674;10.716;2023-02-18T09:46:37;8.03;;;5.23;;
7901;SDS011;3996;49.674;10.716;2023-02-18T09:49:12;8.17;;;5.37;;
7901;SDS011;3996;49.674;10.716;2023-02-18T09:51:50;6.13;;;5.07;;
7901;SDS011;3996;49.674;10.716;2023-02-18T09:54:18;7.33;;;4.83;;
7901;SDS011;3996;49.674;10.716;2023-02-18T09:56:45;6.33;;;5.50;;
7901;SDS011;3996;49.674;10.716;2023-02-18T09:59:16;6.00;;;4.97;;
7901;SDS011;3996;49.674;10.716;2023-02-18T10:01:44;4.60;;;4.20;;
7901;SDS011;3996;49.674;10.716;2023-02-18T10:04:14;4.87;;;4.47;;
7901;SDS011;3996;49.674;10.716;2023-02-18T10:06:43;5.67;;;4.63;;
7901;SDS011;3996;49.674;10.716;2023-02-18T10:12:06;5.60;;;4.60;;
7901;SDS011;3996;49.674;10.716;2023-02-18T10:14:43;5.53;;;4.13;;
7901;SDS011;3996;49.674;10.716;2023-02-18T10:17:14;4.40;;;3.93;;
7901;SDS011;3996;49.674;10.716;2023-02-18T10:19:42;4.67;;;4.20;;
7901;SDS011;3996;49.674;10.716;2023-02-18T10:22:12;4.50;;;4.10;;
7901;SDS011;3996;49.674;10.716;2023-02-18T10:25:03;4.03;;;3.63;;
7901;SDS011;3996;49.674;10.716;2023-02-18T10:27:37;4.07;;;3.67;;
7901;SDS011;3996;49.674;10.716;2023-02-18T10:32:59;4.40;;;3.80;;
7901;SDS011;3996;49.674;10.716;2023-02-18T10:35:46;4.83;;;4.30;;
7901;SDS011;3996;49.674;10.716;2023-02-18T10:44:12;4.40;;;4.00;;
7901;SDS011;3996;49.674;10.716;2023-02-18T10:46:44;4.47;;;4.07;;
7901;SDS011;3996;49.674;10.716;2023-02-18T10:52:15;5.77;;;4.63;;
7901;SDS011;3996;49.674;10.716;2023-02-18T10:57:48;4.57;;;4.17;;
7901;SDS011;3996;49.674;10.716;2023-02-18T11:03:12;5.20;;;4.57;;
7901;SDS011;3996;49.674;10.716;2023-02-18T11:05:41;4.63;;;4.23;;
7901;SDS011;3996;49.674;10.716;2023-02-18T11:08:16;4.70;;;4.20;;
7901;SDS011;3996;49.674;10.716;2023-02-18T11:10:46;4.73;;;4.27;;
7901;SDS011;3996;49.674;10.716;2023-02-18T11:13:29;4.53;;;4.10;;
7901;SDS011;3996;49.674;10.716;2023-02-18T11:16:06;4.80;;;4.40;;
7901;SDS011;3996;49.674;10.716;2023-02-18T11:18:41;4.43;;;4.00;;
7901;SDS011;3996;49.674;10.716;2023-02-18T11:21:20;4.77;;;4.37;;
7901;SDS011;3996;49.674;10.716;2023-02-18T11:24:09;5.00;;;4.50;;
7901;SDS011;3996;49.674;10.716;2023-02-18T11:26:47;4.40;;;4.00;;
7901;SDS011;3996;49.674;10.716;2023-02-18T11:29:19;5.47;;;4.37;;
7901;SDS011;3996;49.674;10.716;2023-02-18T11:32:01;5.77;;;4.47;;
7901;SDS011;3996;49.674;10.716;2023-02-18T11:34:29;6.00;;;4.20;;
7901;SDS011;3996;49.674;10.716;2023-02-18T11:37:07;4.00;;;3.60;;
7901;SDS011;3996;49.674;10.716;2023-02-18T11:39:34;4.00;;;3.60;;
7901;SDS011;3996;49.674;10.716;2023-02-18T11:42:07;6.20;;;4.17;;
7901;SDS011;3996;49.674;10.716;2023-02-18T11:44:41;4.97;;;4.20;;
7901;SDS011;3996;49.674;10.716;2023-02-18T11:49:43;4.30;;;3.90;;
7901;SDS011;3996;49.674;10.716;2023-02-18T11:52:27;4.33;;;3.83;;
7901;SDS011;3996;49.674;10.716;2023-02-18T11:57:58;3.37;;;3.07;;
7901;SDS011;3996;49.674;10.716;2023-02-18T12:00:36;4.40;;;3.70;;
7901;SDS011;3996;49.674;10.716;2023-02-18T12:03:04;4.20;;;3.50;;
7901;SDS011;3996;49.674;10.716;2023-02-18T12:05:41;4.30;;;3.60;;
7901;SDS011;3996;49.674;10.716;2023-02-18T12:10:46;4.93;;;3.93;;
7901;SDS011;3996;49.674;10.716;2023-02-18T12:13:34;4.97;;;4.40;;
7901;SDS011;3996;49.674;10.716;2023-02-18T12:19:06;4.93;;;4.10;;
7901;SDS011;3996;49.674;10.716;2023-02-18T12:24:36;8.27;;;4.33;;
7901;SDS011;3996;49.674;10.716;2023-02-18T12:27:29;6.67;;;5.00;;
7901;SDS011;3996;49.674;10.716;2023-02-18T12:30:31;5.73;;;5.00;;
7901;SDS011;3996;49.674;10.716;2023-02-18T12:33:38;6.67;;;4.87;;
7901;SDS011;3996;49.674;10.716;2023-02-18T12:36:12;5.43;;;4.83;;
7901;SDS011;3996;49.674;10.716;2023-02-18T12:38:49;5.30;;;4.80;;
7901;SDS011;3996;49.674;10.716;2023-02-18T12:52:49;6.63;;;5.60;;
7901;SDS011;3996;49.674;10.716;2023-02-18T12:56:00;6.40;;;5.67;;
7901;SDS011;3996;49.674;10.716;2023-02-18T13:04:54;6.77;;;5.47;;
7901;SDS011;3996;49.674;10.716;2023-02-18T13:07:33;6.20;;;5.40;;
7901;SDS011;3996;49.674;10.716;2023-02-18T13:13:28;6.97;;;5.50;;
7901;SDS011;3996;49.674;10.716;2023-02-18T13:16:09;7.33;;;5.90;;
7901;SDS011;3996;49.674;10.716;2023-02-18T13:18:38;6.93;;;6.23;;
7901;SDS011;3996;49.674;10.716;2023-02-18T13:21:11;6.43;;;5.83;;
7901;SDS011;3996;49.674;10.716;2023-02-18T13:23:42;6.13;;;5.50;;
7901;SDS011;3996;49.674;10.716;2023-02-18T13:26:12;7.53;;;5.87;;
7901;SDS011;3996;49.674;10.716;2023-02-18T13:28:44;7.40;;;6.07;;
7901;SDS011;3996;49.674;10.716;2023-02-18T13:37:14;6.03;;;5.40;;
7901;SDS011;3996;49.674;10.716;2023-02-18T13:40:00;6.27;;;5.20;;
7901;SDS011;3996;49.674;10.716;2023-02-18T13:42:35;7.00;;;5.60;;
7901;SDS011;3996;49.674;10.716;2023-02-18T13:45:05;7.57;;;5.67;;
7901;SDS011;3996;49.674;10.716;2023-02-18T13:47:47;5.50;;;5.00;;
7901;SDS011;3996;49.674;10.716;2023-02-18T13:52:46;6.50;;;5.63;;
7901;SDS011;3996;49.674;10.716;2023-02-18T13:55:21;6.60;;;5.50;;
7901;SDS011;3996;49.674;10.716;2023-02-18T13:57:52;6.67;;;5.67;;
7901;SDS011;3996;49.674;10.716;2023-02-18T14:00:21;7.40;;;5.83;;
7901;SDS011;3996;49.674;10.716;2023-02-18T14:02:59;6.63;;;5.93;;
7901;SDS011;3996;49.674;10.716;2023-02-18T14:05:41;6.60;;;5.50;;
7901;SDS011;3996;49.674;10.716;2023-02-18T14:08:29;6.23;;;5.50;;
7901;SDS011;3996;49.674;10.716;2023-02-18T14:13:41;6.00;;;5.30;;
7901;SDS011;3996;49.674;10.716;2023-02-18T14:16:12;5.50;;;5.00;;
7901;SDS011;3996;49.674;10.716;2023-02-18T14:21:17;6.23;;;5.17;;
7901;SDS011;3996;49.674;10.716;2023-02-18T14:23:59;5.67;;;5.10;;
7901;SDS011;3996;49.674;10.716;2023-02-18T14:26:38;6.30;;;5.23;;
7901;SDS011;3996;49.674;10.716;2023-02-18T14:29:13;5.70;;;5.10;;
7901;SDS011;3996;49.674;10.716;2023-02-18T14:31:51;6.00;;;4.93;;
7901;SDS011;3996;49.674;10.716;2023-02-18T14:36:55;6.10;;;5.50;;
7901;SDS011;3996;49.674;10.716;2023-02-18T14:50:43;5.73;;;5.10;;
7901;SDS011;3996;49.674;10.716;2023-02-18T14:53:21;6.47;;;5.10;;
7901;SDS011;3996;49.674;10.716;2023-02-18T14:55:57;5.20;;;4.40;;
7901;SDS011;3996;49.674;10.716;2023-02-18T14:58:32;5.63;;;4.87;;
7901;SDS011;3996;49.674;10.716;2023-02-18T15:03:41;7.67;;;5.30;;
7901;SDS011;3996;49.674;10.716;2023-02-18T15:06:31;5.90;;;5.20;;
7901;SDS011;3996;49.674;10.716;2023-02-18T15:09:11;6.77;;;5.00;;
7901;SDS011;3996;49.674;10.716;2023-02-18T15:11:48;6.53;;;5.40;;
7901;SDS011;3996;49.674;10.716;2023-02-18T15:14:35;5.93;;;4.33;;
7901;SDS011;3996;49.674;10.716;2023-02-18T15:17:25;5.43;;;4.70;;
7901;SDS011;3996;49.674;10.716;2023-02-18T15:20:02;6.17;;;4.90;;
7901;SDS011;3996;49.674;10.716;2023-02-18T15:22:33;6.13;;;4.70;;
7901;SDS011;3996;49.674;10.716;2023-02-18T15:25:01;5.33;;;4.60;;
7901;SDS011;3996;49.674;10.716;2023-02-18T15:27:33;4.80;;;4.30;;
7901;SDS011;3996;49.674;10.716;2023-02-18T15:30:23;5.83;;;4.77;;
7901;SDS011;3996;49.674;10.716;2023-02-18T15:32:58;5.80;;;4.20;;
7901;SDS011;3996;49.674;10.716;2023-02-18T15:35:31;5.10;;;4.60;;
7901;SDS011;3996;49.674;10.716;2023-02-18T15:38:00;5.10;;;4.60;;
7901;SDS011;3996;49.674;10.716;2023-02-18T15:40:30;7.17;;;4.73;;
7901;SDS011;3996;49.674;10.716;2023-02-18T15:43:01;6.47;;;4.67;;
7901;SDS011;3996;49.674;10.716;2023-02-18T15:45:32;5.67;;;4.73;;
7901;SDS011;3996;49.674;10.716;2023-02-18T15:48:05;6.30;;;4.67;;
7901;SDS011;3996;49.674;10.716;2023-02-18T15:50:50;8.60;;;6.70;;
7901;SDS011;3996;49.674;10.716;2023-02-18T15:53:37;11.97;;;9.60;;
7901;SDS011;3996;49.674;10.716;2023-02-18T16:01:38;7.17;;;5.60;;
7901;SDS011;3996;49.674;10.716;2023-02-18T16:04:04;5.63;;;4.90;;
7901;SDS011;3996;49.674;10.716;2023-02-18T16:06:43;5.77;;;4.83;;
7901;SDS011;3996;49.674;10.716;2023-02-18T16:09:29;7.73;;;4.87;;
7901;SDS011;3996;49.674;10.716;2023-02-18T16:14:56;7.87;;;6.20;;
7901;SDS011;3996;49.674;10.716;2023-02-18T16:17:26;5.17;;;4.47;;
7901;SDS011;3996;49.674;10.716;2023-02-18T16:20:14;7.87;;;4.83;;
7901;SDS011;3996;49.674;10.716;2023-02-18T16:22:44;6.20;;;4.33;;
7901;SDS011;3996;49.674;10.716;2023-02-18T16:28:25;4.43;;;4.03;;
7901;SDS011;3996;49.674;10.716;2023-02-18T16:31:18;5.90;;;5.10;;
7901;SDS011;3996;49.674;10.716;2023-02-18T16:33:50;5.07;;;4.40;;
7901;SDS011;3996;49.674;10.716;2023-02-18T16:36:17;4.37;;;3.97;;
7901;SDS011;3996;49.674;10.716;2023-02-18T16:38:44;4.80;;;4.00;;
7901;SDS011;3996;49.674;10.716;2023-02-18T16:41:23;4.93;;;4.07;;
7901;SDS011;3996;49.674;10.716;2023-02-18T16:43:53;4.50;;;4.10;;
7901;SDS011;3996;49.674;10.716;2023-02-18T16:46:22;4.77;;;4.10;;
7901;SDS011;3996;49.674;10.716;2023-02-18T16:48:49;4.67;;;4.23;;
7901;SDS011;3996;49.674;10.716;2023-02-18T16:51:17;7.10;;;4.30;;
7901;SDS011;3996;49.674;10.716;2023-02-18T16:53:55;4.50;;;3.90;;
7901;SDS011;3996;49.674;10.716;2023-02-18T16:56:22;5.50;;;4.70;;
7901;SDS011;3996;49.674;10.716;2023-02-18T16:58:49;4.97;;;4.40;;
7901;SDS011;3996;49.674;10.716;2023-02-18T17:01:32;6.53;;;4.93;;
7901;SDS011;3996;49.674;10.716;2023-02-18T17:04:05;5.83;;;4.40;;
7901;SDS011;3996;49.674;10.716;2023-02-18T17:06:31;5.30;;;4.80;;
7901;SDS011;3996;49.674;10.716;2023-02-18T17:08:59;6.47;;;4.47;;
7901;SDS011;3996;49.674;10.716;2023-02-18T17:11:33;6.47;;;5.07;;
7901;SDS011;3996;49.674;10.716;2023-02-18T17:14:00;6.37;;;4.70;;
7901;SDS011;3996;49.674;10.716;2023-02-18T17:16:33;5.97;;;5.00;;
7901;SDS011;3996;49.674;10.716;2023-02-18T17:19:05;5.33;;;4.83;;
7901;SDS011;3996;49.674;10.716;2023-02-18T17:21:32;7.97;;;4.93;;
7901;SDS011;3996;49.674;10.716;2023-02-18T17:24:00;5.73;;;4.70;;
7901;SDS011;3996;49.674;10.716;2023-02-18T17:26:26;6.60;;;4.40;;
7901;SDS011;3996;49.674;10.716;2023-02-18T17:28:54;5.83;;;5.17;;
7901;SDS011;3996;49.674;10.716;2023-02-18T17:31:22;5.50;;;5.00;;
7901;SDS011;3996;49.674;10.716;2023-02-18T17:34:03;5.67;;;4.93;;
7901;SDS011;3996;49.674;10.716;2023-02-18T17:36:30;5.47;;;4.57;;
7901;SDS011;3996;49.674;10.716;2023-02-18T17:38:57;6.43;;;4.80;;
7901;SDS011;3996;49.674;10.716;2023-02-18T17:41:23;6.57;;;4.93;;
7901;SDS011;3996;49.674;10.716;2023-02-18T17:43:49;9.17;;;5.20;;
7901;SDS011;3996;49.674;10.716;2023-02-18T17:46:15;5.50;;;4.70;;
7901;SDS011;3996;49.674;10.716;2023-02-18T17:48:42;5.40;;;4.73;;
7901;SDS011;3996;49.674;10.716;2023-02-18T17:51:32;5.97;;;4.97;;
7901;SDS011;3996;49.674;10.716;2023-02-18T17:54:02;5.07;;;4.50;;